sensor_id;sensor_type;location;lat;lon;timestamp;P1;durP1;ratioP1;P2;durP2;ratioP2
10056;SDS011;5068;51.286;7.518;2023-02-25T00:01:10;6.25;;;1.25;;
10056;SDS011;5068;51.286;7.518;2023-02-25T00:02:44;5.40;;;1.40;;
10056;SDS011;5068;51.286;7.518;2023-02-25T00:04:18;5.95;;;1.33;;
10056;SDS011;5068;51.286;7.518;2023-02-25T00:05:52;7.38;;;1.50;;
10056;SDS011;5068;51.286;7.518;2023-02-25T00:07:25;6.60;;;1.25;;
10056;SDS011;5068;51.286;7.518;2023-02-25T00:08:59;9.00;;;1.45;;
10056;SDS011;5068;51.286;7.518;2023-02-25T00:10:32;7.80;;;1.65;;
10056;SDS011;5068;51.286;7.518;2023-02-25T00:12:07;5.55;;;1.98;;
10056;SDS011;5068;51.286;7.518;2023-02-25T00:13:42;5.03;;;1.33;;
10056;SDS011;5068;51.286;7.518;2023-02-25T00:15:15;4.68;;;1.33;;
10056;SDS011;5068;51.286;7.518;2023-02-25T00:16:52;5.45;;;1.42;;
10056;SDS011;5068;51.286;7.518;2023-02-25T00:18:34;6.43;;;1.40;;
10056;SDS011;5068;51.286;7.518;2023-02-25T00:20:16;7.90;;;1.13;;
10056;SDS011;5068;51.286;7.518;2023-02-25T00:21:57;7.97;;;1.45;;
10056;SDS011;5068;51.286;7.518;2023-02-25T00:23:35;5.55;;;1.10;;
10056;SDS011;5068;51.286;7.518;2023-02-25T00:25:16;6.03;;;1.40;;
10056;SDS011;5068;51.286;7.518;2023-02-25T00:27:00;4.03;;;1.38;;
10056;SDS011;5068;51.286;7.518;2023-02-25T00:28:43;5.30;;;1.10;;
10056;SDS011;5068;51.286;7.518;2023-02-25T00:30:24;5.38;;;1.25;;
10056;SDS011;5068;51.286;7.518;2023-02-25T00:32:01;4.68;;;1.25;;
10056;SDS011;5068;51.286;7.518;2023-02-25T00:33:40;3.67;;;1.02;;
10056;SDS011;5068;51.286;7.518;2023-02-25T00:35:20;5.18;;;0.98;;
10056;SDS011;5068;51.286;7.518;2023-02-25T00:37:01;3.90;;;1.40;;
10056;SDS011;5068;51.286;7.518;2023-02-25T00:38:42;6.75;;;1.48;;
10056;SDS011;5068;51.286;7.518;2023-02-25T00:40:26;3.58;;;1.00;;
10056;SDS011;5068;51.286;7.518;2023-02-25T00:42:04;5.47;;;1.17;;
10056;SDS011;5068;51.286;7.518;2023-02-25T00:43:49;6.90;;;2.05;;
10056;SDS011;5068;51.286;7.518;2023-02-25T00:45:32;7.57;;;1.42;;
10056;SDS011;5068;51.286;7.518;2023-02-25T00:47:14;5.03;;;1.55;;
10056;SDS011;5068;51.286;7.518;2023-02-25T00:48:56;4.65;;;1.10;;
10056;SDS011;5068;51.286;7.518;2023-02-25T00:50:30;6.00;;;1.15;;
10056;SDS011;5068;51.286;7.518;2023-02-25T00:52:03;7.53;;;1.13;;
10056;SDS011;5068;51.286;7.518;2023-02-25T00:53:37;7.13;;;1.25;;
10056;SDS011;5068;51.286;7.518;2023-02-25T00:55:14;4.45;;;1.27;;
10056;SDS011;5068;51.286;7.518;2023-02-25T00:56:54;4.55;;;0.95;;
10056;SDS011;5068;51.286;7.518;2023-02-25T00:58:31;4.65;;;1.50;;
10056;SDS011;5068;51.286;7.518;2023-02-25T01:00:13;6.35;;;1.15;;
10056;SDS011;5068;51.286;7.518;2023-02-25T01:01:50;4.97;;;1.85;;
10056;SDS011;5068;51.286;7.518;2023-02-25T01:03:29;5.78;;;1.23;;
10056;SDS011;5068;51.286;7.518;2023-02-25T01:05:06;7.47;;;1.80;;
10056;SDS011;5068;51.286;7.518;2023-02-25T01:06:43;4.95;;;1.10;;
10056;SDS011;5068;51.286;7.518;2023-02-25T01:08:21;6.22;;;1.42;;
10056;SDS011;5068;51.286;7.518;2023-02-25T01:10:01;5.93;;;1.70;;
10056;SDS011;5068;51.286;7.518;2023-02-25T01:11:43;5.40;;;1.15;;
10056;SDS011;5068;51.286;7.518;2023-02-25T01:13:22;7.88;;;1.52;;
10056;SDS011;5068;51.286;7.518;2023-02-25T01:14:58;3.83;;;0.90;;
10056;SDS011;5068;51.286;7.518;2023-02-25T01:16:40;4.70;;;1.80;;
10056;SDS011;5068;51.286;7.518;2023-02-25T01:18:21;8.55;;;1.42;;
10056;SDS011;5068;51.286;7.518;2023-02-25T01:20:04;4.25;;;1.10;;
10056;SDS011;5068;51.286;7.518;2023-02-25T01:21:46;4.95;;;1.02;;
10056;SDS011;5068;51.286;7.518;2023-02-25T01:23:24;5.18;;;1.10;;
10056;SDS011;5068;51.286;7.518;2023-02-25T01:25:05;6.95;;;1.02;;
10056;SDS011;5068;51.286;7.518;2023-02-25T01:28:27;6.65;;;1.05;;
10056;SDS011;5068;51.286;7.518;2023-02-25T01:30:06;5.13;;;1.05;;
10056;SDS011;5068;51.286;7.518;2023-02-25T01:31:45;3.85;;;1.45;;
10056;SDS011;5068;51.286;7.518;2023-02-25T01:33:27;3.90;;;1.05;;
10056;SDS011;5068;51.286;7.518;2023-02-25T01:35:04;5.32;;;1.35;;
10056;SDS011;5068;51.286;7.518;2023-02-25T01:36:41;4.28;;;1.40;;
10056;SDS011;5068;51.286;7.518;2023-02-25T01:38:21;5.80;;;1.42;;
10056;SDS011;5068;51.286;7.518;2023-02-25T01:39:59;6.18;;;1.20;;
10056;SDS011;5068;51.286;7.518;2023-02-25T01:41:39;5.80;;;1.25;;
10056;SDS011;5068;51.286;7.518;2023-02-25T01:43:18;5.07;;;1.30;;
10056;SDS011;5068;51.286;7.518;2023-02-25T01:47:05;5.82;;;1.25;;
10056;SDS011;5068;51.286;7.518;2023-02-25T01:48:57;6.45;;;1.35;;
10056;SDS011;5068;51.286;7.518;2023-02-25T01:50:41;2.53;;;1.13;;
10056;SDS011;5068;51.286;7.518;2023-02-25T01:52:26;5.32;;;1.60;;
10056;SDS011;5068;51.286;7.518;2023-02-25T01:54:04;6.03;;;1.35;;
10056;SDS011;5068;51.286;7.518;2023-02-25T01:55:44;5.82;;;1.25;;
10056;SDS011;5068;51.286;7.518;2023-02-25T01:57:24;8.85;;;1.65;;
10056;SDS011;5068;51.286;7.518;2023-02-25T01:59:02;4.47;;;1.35;;
10056;SDS011;5068;51.286;7.518;2023-02-25T02:00:43;5.10;;;1.50;;
10056;SDS011;5068;51.286;7.518;2023-02-25T02:02:21;5.20;;;1.08;;
10056;SDS011;5068;51.286;7.518;2023-02-25T02:04:12;4.38;;;1.33;;
10056;SDS011;5068;51.286;7.518;2023-02-25T02:05:54;8.35;;;1.85;;
10056;SDS011;5068;51.286;7.518;2023-02-25T02:07:43;6.90;;;1.70;;
10056;SDS011;5068;51.286;7.518;2023-02-25T02:09:21;5.63;;;1.33;;
10056;SDS011;5068;51.286;7.518;2023-02-25T02:11:00;4.53;;;1.33;;
10056;SDS011;5068;51.286;7.518;2023-02-25T02:12:39;5.78;;;1.38;;
10056;SDS011;5068;51.286;7.518;2023-02-25T02:14:19;5.35;;;1.52;;
10056;SDS011;5068;51.286;7.518;2023-02-25T02:16:17;7.40;;;1.95;;
10056;SDS011;5068;51.286;7.518;2023-02-25T02:18:11;4.53;;;1.58;;
10056;SDS011;5068;51.286;7.518;2023-02-25T02:19:53;8.38;;;1.80;;
10056;SDS011;5068;51.286;7.518;2023-02-25T02:21:48;5.55;;;1.95;;
10056;SDS011;5068;51.286;7.518;2023-02-25T02:26:31;6.03;;;1.88;;
10056;SDS011;5068;51.286;7.518;2023-02-25T02:28:41;6.45;;;1.80;;
10056;SDS011;5068;51.286;7.518;2023-02-25T02:31:09;4.97;;;1.95;;
10056;SDS011;5068;51.286;7.518;2023-02-25T02:33:08;5.05;;;1.60;;
10056;SDS011;5068;51.286;7.518;2023-02-25T02:34:54;6.47;;;2.25;;
10056;SDS011;5068;51.286;7.518;2023-02-25T02:36:50;5.70;;;1.75;;
10056;SDS011;5068;51.286;7.518;2023-02-25T02:38:41;4.28;;;1.60;;
10056;SDS011;5068;51.286;7.518;2023-02-25T02:40:38;10.82;;;2.20;;
10056;SDS011;5068;51.286;7.518;2023-02-25T02:42:28;5.35;;;2.80;;
10056;SDS011;5068;51.286;7.518;2023-02-25T02:44:15;3.28;;;1.90;;
10056;SDS011;5068;51.286;7.518;2023-02-25T02:46:02;8.10;;;2.40;;
10056;SDS011;5068;51.286;7.518;2023-02-25T02:47:48;9.85;;;1.75;;
10056;SDS011;5068;51.286;7.518;2023-02-25T02:49:34;6.28;;;1.88;;
10056;SDS011;5068;51.286;7.518;2023-02-25T02:51:18;5.63;;;1.98;;
10056;SDS011;5068;51.286;7.518;2023-02-25T02:53:03;6.85;;;1.70;;
10056;SDS011;5068;51.286;7.518;2023-02-25T02:54:51;4.20;;;2.10;;
10056;SDS011;5068;51.286;7.518;2023-02-25T02:56:40;5.57;;;1.90;;
10056;SDS011;5068;51.286;7.518;2023-02-25T02:58:21;4.47;;;2.03;;
10056;SDS011;5068;51.286;7.518;2023-02-25T03:00:09;7.28;;;2.17;;
10056;SDS011;5068;51.286;7.518;2023-02-25T03:01:58;4.75;;;1.98;;
10056;SDS011;5068;51.286;7.518;2023-02-25T03:03:43;4.55;;;1.80;;
10056;SDS011;5068;51.286;7.518;2023-02-25T03:05:29;3.47;;;1.75;;
10056;SDS011;5068;51.286;7.518;2023-02-25T03:07:07;9.07;;;2.25;;
10056;SDS011;5068;51.286;7.518;2023-02-25T03:08:47;8.48;;;2.17;;
10056;SDS011;5068;51.286;7.518;2023-02-25T03:10:30;4.45;;;1.95;;
10056;SDS011;5068;51.286;7.518;2023-02-25T03:12:08;3.83;;;1.58;;
10056;SDS011;5068;51.286;7.518;2023-02-25T03:13:47;6.30;;;1.67;;
10056;SDS011;5068;51.286;7.518;2023-02-25T03:15:26;4.25;;;1.88;;
10056;SDS011;5068;51.286;7.518;2023-02-25T03:17:08;6.65;;;2.00;;
10056;SDS011;5068;51.286;7.518;2023-02-25T03:18:50;8.18;;;2.10;;
10056;SDS011;5068;51.286;7.518;2023-02-25T03:20:39;8.65;;;2.00;;
10056;SDS011;5068;51.286;7.518;2023-02-25T03:22:18;3.95;;;1.83;;
10056;SDS011;5068;51.286;7.518;2023-02-25T03:24:02;4.35;;;1.70;;
10056;SDS011;5068;51.286;7.518;2023-02-25T03:25:45;3.58;;;1.75;;
10056;SDS011;5068;51.286;7.518;2023-02-25T03:27:34;5.47;;;1.80;;
10056;SDS011;5068;51.286;7.518;2023-02-25T03:29:14;7.85;;;2.03;;
10056;SDS011;5068;51.286;7.518;2023-02-25T03:30:58;4.95;;;1.65;;
10056;SDS011;5068;51.286;7.518;2023-02-25T03:32:47;8.05;;;2.30;;
10056;SDS011;5068;51.286;7.518;2023-02-25T03:34:29;8.05;;;2.05;;
10056;SDS011;5068;51.286;7.518;2023-02-25T03:36:12;4.10;;;1.80;;
10056;SDS011;5068;51.286;7.518;2023-02-25T03:37:57;6.60;;;1.77;;
10056;SDS011;5068;51.286;7.518;2023-02-25T03:39:42;5.22;;;1.90;;
10056;SDS011;5068;51.286;7.518;2023-02-25T03:41:29;4.72;;;1.83;;
10056;SDS011;5068;51.286;7.518;2023-02-25T03:43:10;6.32;;;2.30;;
10056;SDS011;5068;51.286;7.518;2023-02-25T03:44:57;6.93;;;2.30;;
10056;SDS011;5068;51.286;7.518;2023-02-25T03:46:39;4.45;;;2.00;;
10056;SDS011;5068;51.286;7.518;2023-02-25T03:48:22;6.03;;;2.25;;
10056;SDS011;5068;51.286;7.518;2023-02-25T03:50:02;5.75;;;2.30;;
10056;SDS011;5068;51.286;7.518;2023-02-25T03:51:52;6.22;;;2.08;;
10056;SDS011;5068;51.286;7.518;2023-02-25T03:53:36;9.40;;;2.67;;
10056;SDS011;5068;51.286;7.518;2023-02-25T03:55:16;10.95;;;2.80;;
10056;SDS011;5068;51.286;7.518;2023-02-25T03:56:54;5.75;;;2.50;;
10056;SDS011;5068;51.286;7.518;2023-02-25T03:58:39;5.50;;;2.60;;
10056;SDS011;5068;51.286;7.518;2023-02-25T04:00:22;4.22;;;2.45;;
10056;SDS011;5068;51.286;7.518;2023-02-25T04:02:02;5.47;;;2.45;;
10056;SDS011;5068;51.286;7.518;2023-02-25T04:03:42;5.78;;;2.10;;
10056;SDS011;5068;51.286;7.518;2023-02-25T04:05:20;7.32;;;2.30;;
10056;SDS011;5068;51.286;7.518;2023-02-25T04:07:00;9.75;;;2.90;;
10056;SDS011;5068;51.286;7.518;2023-02-25T04:08:38;3.47;;;2.10;;
10056;SDS011;5068;51.286;7.518;2023-02-25T04:10:16;7.00;;;2.47;;
10056;SDS011;5068;51.286;7.518;2023-02-25T04:11:55;6.53;;;3.38;;
10056;SDS011;5068;51.286;7.518;2023-02-25T04:13:34;7.63;;;2.85;;
10056;SDS011;5068;51.286;7.518;2023-02-25T04:15:15;4.80;;;2.63;;
10056;SDS011;5068;51.286;7.518;2023-02-25T04:16:52;4.93;;;2.33;;
10056;SDS011;5068;51.286;7.518;2023-02-25T04:18:36;4.85;;;2.42;;
10056;SDS011;5068;51.286;7.518;2023-02-25T04:20:14;7.95;;;2.88;;
10056;SDS011;5068;51.286;7.518;2023-02-25T04:21:52;5.72;;;2.70;;
10056;SDS011;5068;51.286;7.518;2023-02-25T04:23:30;5.80;;;2.67;;
10056;SDS011;5068;51.286;7.518;2023-02-25T04:25:08;9.73;;;3.08;;
10056;SDS011;5068;51.286;7.518;2023-02-25T04:26:46;9.55;;;2.88;;
10056;SDS011;5068;51.286;7.518;2023-02-25T04:28:30;8.25;;;3.20;;
10056;SDS011;5068;51.286;7.518;2023-02-25T04:30:08;5.88;;;2.90;;
10056;SDS011;5068;51.286;7.518;2023-02-25T04:31:47;5.10;;;2.67;;
10056;SDS011;5068;51.286;7.518;2023-02-25T04:33:24;7.10;;;3.05;;
10056;SDS011;5068;51.286;7.518;2023-02-25T04:35:01;6.22;;;2.70;;
10056;SDS011;5068;51.286;7.518;2023-02-25T04:36:43;9.30;;;3.33;;
10056;SDS011;5068;51.286;7.518;2023-02-25T04:38:21;5.80;;;2.90;;
10056;SDS011;5068;51.286;7.518;2023-02-25T04:39:58;9.70;;;3.17;;
10056;SDS011;5068;51.286;7.518;2023-02-25T04:41:34;8.07;;;3.40;;
10056;SDS011;5068;51.286;7.518;2023-02-25T04:43:12;5.10;;;2.88;;
10056;SDS011;5068;51.286;7.518;2023-02-25T04:44:52;7.03;;;2.75;;
10056;SDS011;5068;51.286;7.518;2023-02-25T04:46:30;6.45;;;3.10;;
10056;SDS011;5068;51.286;7.518;2023-02-25T04:48:09;9.98;;;2.88;;
10056;SDS011;5068;51.286;7.518;2023-02-25T04:49:47;12.63;;;3.28;;
10056;SDS011;5068;51.286;7.518;2023-02-25T04:51:24;5.30;;;2.50;;
10056;SDS011;5068;51.286;7.518;2023-02-25T04:53:05;9.00;;;2.63;;
10056;SDS011;5068;51.286;7.518;2023-02-25T04:54:48;7.38;;;3.05;;
10056;SDS011;5068;51.286;7.518;2023-02-25T04:56:26;7.35;;;2.80;;
10056;SDS011;5068;51.286;7.518;2023-02-25T04:58:03;7.22;;;3.00;;
10056;SDS011;5068;51.286;7.518;2023-02-25T04:59:41;7.95;;;3.65;;
10056;SDS011;5068;51.286;7.518;2023-02-25T05:01:19;6.88;;;2.80;;
10056;SDS011;5068;51.286;7.518;2023-02-25T05:02:56;8.00;;;3.00;;
10056;SDS011;5068;51.286;7.518;2023-02-25T05:04:37;3.92;;;2.70;;
10056;SDS011;5068;51.286;7.518;2023-02-25T05:06:14;6.90;;;3.20;;
10056;SDS011;5068;51.286;7.518;2023-02-25T05:07:51;8.70;;;2.90;;
10056;SDS011;5068;51.286;7.518;2023-02-25T05:09:32;8.13;;;3.05;;
10056;SDS011;5068;51.286;7.518;2023-02-25T05:11:10;7.50;;;2.55;;
10056;SDS011;5068;51.286;7.518;2023-02-25T05:12:52;7.70;;;2.80;;
10056;SDS011;5068;51.286;7.518;2023-02-25T05:14:33;5.68;;;2.85;;
10056;SDS011;5068;51.286;7.518;2023-02-25T05:16:12;7.57;;;2.75;;
10056;SDS011;5068;51.286;7.518;2023-02-25T05:17:52;8.27;;;2.58;;
10056;SDS011;5068;51.286;7.518;2023-02-25T05:19:29;9.52;;;3.45;;
10056;SDS011;5068;51.286;7.518;2023-02-25T05:21:07;8.57;;;2.60;;
10056;SDS011;5068;51.286;7.518;2023-02-25T05:22:45;6.45;;;3.30;;
10056;SDS011;5068;51.286;7.518;2023-02-25T05:24:25;8.65;;;2.80;;
10056;SDS011;5068;51.286;7.518;2023-02-25T05:26:06;9.10;;;3.22;;
10056;SDS011;5068;51.286;7.518;2023-02-25T05:27:45;5.55;;;2.50;;
10056;SDS011;5068;51.286;7.518;2023-02-25T05:29:25;7.75;;;2.78;;
10056;SDS011;5068;51.286;7.518;2023-02-25T05:31:04;9.27;;;3.20;;
10056;SDS011;5068;51.286;7.518;2023-02-25T05:32:42;7.57;;;2.75;;
10056;SDS011;5068;51.286;7.518;2023-02-25T05:34:20;10.13;;;2.97;;
10056;SDS011;5068;51.286;7.518;2023-02-25T05:35:58;7.55;;;2.88;;
10056;SDS011;5068;51.286;7.518;2023-02-25T05:37:35;6.85;;;2.95;;
10056;SDS011;5068;51.286;7.518;2023-02-25T05:39:12;12.02;;;2.67;;
10056;SDS011;5068;51.286;7.518;2023-02-25T05:40:50;8.25;;;2.92;;
10056;SDS011;5068;51.286;7.518;2023-02-25T05:42:31;7.65;;;2.55;;
10056;SDS011;5068;51.286;7.518;2023-02-25T05:44:08;10.55;;;2.60;;
10056;SDS011;5068;51.286;7.518;2023-02-25T05:45:51;6.05;;;2.90;;
10056;SDS011;5068;51.286;7.518;2023-02-25T05:47:29;8.57;;;2.70;;
10056;SDS011;5068;51.286;7.518;2023-02-25T05:49:07;7.20;;;2.83;;
10056;SDS011;5068;51.286;7.518;2023-02-25T05:50:48;8.23;;;2.95;;
10056;SDS011;5068;51.286;7.518;2023-02-25T05:52:26;7.80;;;3.60;;
10056;SDS011;5068;51.286;7.518;2023-02-25T05:54:04;9.63;;;2.75;;
10056;SDS011;5068;51.286;7.518;2023-02-25T05:55:41;6.43;;;2.65;;
10056;SDS011;5068;51.286;7.518;2023-02-25T05:57:19;7.07;;;2.65;;
10056;SDS011;5068;51.286;7.518;2023-02-25T05:59:03;8.77;;;2.70;;
10056;SDS011;5068;51.286;7.518;2023-02-25T06:00:40;7.60;;;2.78;;
10056;SDS011;5068;51.286;7.518;2023-02-25T06:02:17;7.55;;;2.67;;
10056;SDS011;5068;51.286;7.518;2023-02-25T06:03:55;4.20;;;2.58;;
10056;SDS011;5068;51.286;7.518;2023-02-25T06:05:38;7.95;;;2.70;;
10056;SDS011;5068;51.286;7.518;2023-02-25T06:07:19;8.45;;;2.70;;
10056;SDS011;5068;51.286;7.518;2023-02-25T06:08:56;5.38;;;1.95;;
10056;SDS011;5068;51.286;7.518;2023-02-25T06:10:35;5.95;;;2.40;;
10056;SDS011;5068;51.286;7.518;2023-02-25T06:12:13;9.98;;;2.78;;
10056;SDS011;5068;51.286;7.518;2023-02-25T06:13:52;6.97;;;2.45;;
10056;SDS011;5068;51.286;7.518;2023-02-25T06:15:32;7.43;;;2.70;;
10056;SDS011;5068;51.286;7.518;2023-02-25T06:17:12;6.90;;;2.53;;
10056;SDS011;5068;51.286;7.518;2023-02-25T06:18:49;8.88;;;2.60;;
10056;SDS011;5068;51.286;7.518;2023-02-25T06:20:28;5.00;;;2.08;;
10056;SDS011;5068;51.286;7.518;2023-02-25T06:22:07;8.07;;;2.70;;
10056;SDS011;5068;51.286;7.518;2023-02-25T06:23:45;8.20;;;2.17;;
10056;SDS011;5068;51.286;7.518;2023-02-25T06:25:24;5.32;;;2.13;;
10056;SDS011;5068;51.286;7.518;2023-02-25T06:27:02;9.90;;;2.30;;
10056;SDS011;5068;51.286;7.518;2023-02-25T06:28:39;6.85;;;2.20;;
10056;SDS011;5068;51.286;7.518;2023-02-25T06:30:17;8.20;;;2.20;;
10056;SDS011;5068;51.286;7.518;2023-02-25T06:31:56;6.75;;;1.95;;
10056;SDS011;5068;51.286;7.518;2023-02-25T06:33:34;7.60;;;2.53;;
10056;SDS011;5068;51.286;7.518;2023-02-25T06:35:12;4.88;;;1.83;;
10056;SDS011;5068;51.286;7.518;2023-02-25T06:36:50;7.32;;;2.15;;
10056;SDS011;5068;51.286;7.518;2023-02-25T06:38:26;6.13;;;2.17;;
10056;SDS011;5068;51.286;7.518;2023-02-25T06:40:03;5.75;;;2.00;;
10056;SDS011;5068;51.286;7.518;2023-02-25T06:41:43;6.13;;;1.88;;
10056;SDS011;5068;51.286;7.518;2023-02-25T06:43:21;4.70;;;2.10;;
10056;SDS011;5068;51.286;7.518;2023-02-25T06:45:01;4.53;;;2.03;;
10056;SDS011;5068;51.286;7.518;2023-02-25T06:46:42;5.47;;;2.30;;
10056;SDS011;5068;51.286;7.518;2023-02-25T06:48:21;9.18;;;2.05;;
10056;SDS011;5068;51.286;7.518;2023-02-25T06:49:59;6.53;;;2.70;;
10056;SDS011;5068;51.286;7.518;2023-02-25T06:51:36;4.53;;;1.83;;
10056;SDS011;5068;51.286;7.518;2023-02-25T06:53:13;7.10;;;2.00;;
10056;SDS011;5068;51.286;7.518;2023-02-25T06:54:52;7.72;;;2.47;;
10056;SDS011;5068;51.286;7.518;2023-02-25T06:56:29;8.30;;;2.10;;
10056;SDS011;5068;51.286;7.518;2023-02-25T06:58:08;5.85;;;1.90;;
10056;SDS011;5068;51.286;7.518;2023-02-25T06:59:47;6.72;;;2.22;;
10056;SDS011;5068;51.286;7.518;2023-02-25T07:01:25;5.80;;;1.92;;
10056;SDS011;5068;51.286;7.518;2023-02-25T07:03:05;7.63;;;2.95;;
10056;SDS011;5068;51.286;7.518;2023-02-25T07:04:46;5.65;;;2.45;;
10056;SDS011;5068;51.286;7.518;2023-02-25T07:06:23;5.70;;;2.00;;
10056;SDS011;5068;51.286;7.518;2023-02-25T07:08:00;6.43;;;2.72;;
10056;SDS011;5068;51.286;7.518;2023-02-25T07:09:38;7.88;;;2.38;;
10056;SDS011;5068;51.286;7.518;2023-02-25T07:11:25;6.38;;;2.83;;
10056;SDS011;5068;51.286;7.518;2023-02-25T07:13:08;5.85;;;2.35;;
10056;SDS011;5068;51.286;7.518;2023-02-25T07:14:46;6.72;;;3.05;;
10056;SDS011;5068;51.286;7.518;2023-02-25T07:16:24;8.05;;;2.60;;
10056;SDS011;5068;51.286;7.518;2023-02-25T07:18:02;7.68;;;2.83;;
10056;SDS011;5068;51.286;7.518;2023-02-25T07:19:40;9.63;;;2.67;;
10056;SDS011;5068;51.286;7.518;2023-02-25T07:21:19;6.07;;;2.85;;
10056;SDS011;5068;51.286;7.518;2023-02-25T07:22:57;9.68;;;3.10;;
10056;SDS011;5068;51.286;7.518;2023-02-25T07:24:40;7.45;;;2.85;;
10056;SDS011;5068;51.286;7.518;2023-02-25T07:26:18;8.77;;;3.35;;
10056;SDS011;5068;51.286;7.518;2023-02-25T07:27:57;6.05;;;2.67;;
10056;SDS011;5068;51.286;7.518;2023-02-25T07:29:34;6.13;;;2.63;;
10056;SDS011;5068;51.286;7.518;2023-02-25T07:31:12;6.38;;;2.58;;
10056;SDS011;5068;51.286;7.518;2023-02-25T07:32:55;5.72;;;2.90;;
10056;SDS011;5068;51.286;7.518;2023-02-25T07:34:32;6.55;;;2.92;;
10056;SDS011;5068;51.286;7.518;2023-02-25T07:36:09;6.53;;;2.90;;
10056;SDS011;5068;51.286;7.518;2023-02-25T07:37:48;6.03;;;2.90;;
10056;SDS011;5068;51.286;7.518;2023-02-25T07:39:29;6.93;;;3.22;;
10056;SDS011;5068;51.286;7.518;2023-02-25T07:41:06;5.28;;;2.80;;
10056;SDS011;5068;51.286;7.518;2023-02-25T07:42:46;7.50;;;2.75;;
10056;SDS011;5068;51.286;7.518;2023-02-25T07:44:25;6.72;;;2.50;;
10056;SDS011;5068;51.286;7.518;2023-02-25T07:46:03;8.75;;;2.78;;
10056;SDS011;5068;51.286;7.518;2023-02-25T07:47:40;10.27;;;3.03;;
10056;SDS011;5068;51.286;7.518;2023-02-25T07:49:17;10.35;;;2.55;;
10056;SDS011;5068;51.286;7.518;2023-02-25T07:51:00;7.45;;;2.00;;
10056;SDS011;5068;51.286;7.518;2023-02-25T07:52:44;7.85;;;2.60;;
10056;SDS011;5068;51.286;7.518;2023-02-25T07:56:04;8.15;;;2.35;;
10056;SDS011;5068;51.286;7.518;2023-02-25T07:57:42;5.85;;;1.92;;
10056;SDS011;5068;51.286;7.518;2023-02-25T07:59:23;7.68;;;1.95;;
10056;SDS011;5068;51.286;7.518;2023-02-25T08:01:06;9.38;;;2.10;;
10056;SDS011;5068;51.286;7.518;2023-02-25T08:02:48;6.65;;;1.98;;
10056;SDS011;5068;51.286;7.518;2023-02-25T08:04:27;7.70;;;2.13;;
10056;SDS011;5068;51.286;7.518;2023-02-25T08:06:05;6.10;;;2.63;;
10056;SDS011;5068;51.286;7.518;2023-02-25T08:07:43;9.40;;;2.10;;
10056;SDS011;5068;51.286;7.518;2023-02-25T08:09:20;5.20;;;1.58;;
10056;SDS011;5068;51.286;7.518;2023-02-25T08:10:58;8.32;;;2.30;;
10056;SDS011;5068;51.286;7.518;2023-02-25T08:12:40;12.07;;;2.08;;
10056;SDS011;5068;51.286;7.518;2023-02-25T08:14:17;8.65;;;1.92;;
10056;SDS011;5068;51.286;7.518;2023-02-25T08:15:58;4.40;;;1.85;;
10056;SDS011;5068;51.286;7.518;2023-02-25T08:17:38;8.43;;;2.33;;
10056;SDS011;5068;51.286;7.518;2023-02-25T08:19:22;3.15;;;1.58;;
10056;SDS011;5068;51.286;7.518;2023-02-25T08:21:02;6.35;;;2.08;;
10056;SDS011;5068;51.286;7.518;2023-02-25T08:22:43;6.57;;;1.92;;
10056;SDS011;5068;51.286;7.518;2023-02-25T08:24:19;6.35;;;1.98;;
10056;SDS011;5068;51.286;7.518;2023-02-25T08:27:37;5.60;;;1.80;;
10056;SDS011;5068;51.286;7.518;2023-02-25T08:29:16;6.03;;;1.98;;
10056;SDS011;5068;51.286;7.518;2023-02-25T08:30:55;4.28;;;1.73;;
10056;SDS011;5068;51.286;7.518;2023-02-25T08:32:34;4.75;;;1.50;;
10056;SDS011;5068;51.286;7.518;2023-02-25T08:34:14;6.47;;;1.70;;
10056;SDS011;5068;51.286;7.518;2023-02-25T08:35:52;4.90;;;1.77;;
10056;SDS011;5068;51.286;7.518;2023-02-25T08:37:28;8.02;;;1.67;;
10056;SDS011;5068;51.286;7.518;2023-02-25T08:39:05;8.85;;;1.83;;
10056;SDS011;5068;51.286;7.518;2023-02-25T08:40:42;6.13;;;1.75;;
10056;SDS011;5068;51.286;7.518;2023-02-25T08:42:22;6.88;;;2.35;;
10056;SDS011;5068;51.286;7.518;2023-02-25T08:44:02;5.80;;;1.80;;
10056;SDS011;5068;51.286;7.518;2023-02-25T08:45:40;4.70;;;1.73;;
10056;SDS011;5068;51.286;7.518;2023-02-25T08:47:17;8.15;;;1.77;;
10056;SDS011;5068;51.286;7.518;2023-02-25T08:48:54;4.15;;;1.65;;
10056;SDS011;5068;51.286;7.518;2023-02-25T08:50:33;6.32;;;2.00;;
10056;SDS011;5068;51.286;7.518;2023-02-25T08:52:12;7.53;;;1.50;;
10056;SDS011;5068;51.286;7.518;2023-02-25T08:53:48;5.55;;;1.50;;
10056;SDS011;5068;51.286;7.518;2023-02-25T08:55:29;5.65;;;1.35;;
10056;SDS011;5068;51.286;7.518;2023-02-25T08:57:08;4.90;;;1.35;;
10056;SDS011;5068;51.286;7.518;2023-02-25T08:58:47;4.43;;;0.95;;
10056;SDS011;5068;51.286;7.518;2023-02-25T09:00:29;8.98;;;2.08;;
10056;SDS011;5068;51.286;7.518;2023-02-25T09:02:06;4.32;;;1.20;;
10056;SDS011;5068;51.286;7.518;2023-02-25T09:03:50;5.05;;;1.27;;
10056;SDS011;5068;51.286;7.518;2023-02-25T09:05:31;3.17;;;1.20;;
10056;SDS011;5068;51.286;7.518;2023-02-25T09:07:13;6.80;;;1.50;;
10056;SDS011;5068;51.286;7.518;2023-02-25T09:08:58;5.82;;;1.48;;
10056;SDS011;5068;51.286;7.518;2023-02-25T09:10:38;6.80;;;1.15;;
10056;SDS011;5068;51.286;7.518;2023-02-25T09:12:25;5.82;;;1.25;;
10056;SDS011;5068;51.286;7.518;2023-02-25T09:14:12;3.70;;;1.05;;
10056;SDS011;5068;51.286;7.518;2023-02-25T09:17:32;7.03;;;0.90;;
10056;SDS011;5068;51.286;7.518;2023-02-25T09:19:10;9.10;;;1.30;;
10056;SDS011;5068;51.286;7.518;2023-02-25T09:20:48;7.15;;;0.88;;
10056;SDS011;5068;51.286;7.518;2023-02-25T09:22:23;5.47;;;1.50;;
10056;SDS011;5068;51.286;7.518;2023-02-25T09:23:56;7.68;;;1.25;;
10056;SDS011;5068;51.286;7.518;2023-02-25T09:25:31;4.32;;;0.90;;
10056;SDS011;5068;51.286;7.518;2023-02-25T09:27:09;3.97;;;1.17;;
10056;SDS011;5068;51.286;7.518;2023-02-25T09:28:46;5.60;;;1.50;;
10056;SDS011;5068;51.286;7.518;2023-02-25T09:30:24;4.50;;;0.95;;
10056;SDS011;5068;51.286;7.518;2023-02-25T09:32:01;6.10;;;1.45;;
10056;SDS011;5068;51.286;7.518;2023-02-25T09:33:39;6.55;;;1.42;;
10056;SDS011;5068;51.286;7.518;2023-02-25T09:35:16;4.93;;;1.13;;
10056;SDS011;5068;51.286;7.518;2023-02-25T09:36:54;3.17;;;1.00;;
10056;SDS011;5068;51.286;7.518;2023-02-25T09:38:32;6.20;;;1.40;;
10056;SDS011;5068;51.286;7.518;2023-02-25T09:40:12;4.85;;;1.25;;
10056;SDS011;5068;51.286;7.518;2023-02-25T09:41:56;3.97;;;1.42;;
10056;SDS011;5068;51.286;7.518;2023-02-25T09:43:44;4.50;;;1.08;;
10056;SDS011;5068;51.286;7.518;2023-02-25T09:45:30;3.65;;;1.02;;
10056;SDS011;5068;51.286;7.518;2023-02-25T09:47:11;7.47;;;1.38;;
10056;SDS011;5068;51.286;7.518;2023-02-25T09:48:56;5.90;;;1.48;;
10056;SDS011;5068;51.286;7.518;2023-02-25T09:50:46;5.22;;;1.35;;
10056;SDS011;5068;51.286;7.518;2023-02-25T09:52:32;5.95;;;1.65;;
10056;SDS011;5068;51.286;7.518;2023-02-25T09:54:16;3.40;;;1.40;;
10056;SDS011;5068;51.286;7.518;2023-02-25T09:56:03;3.72;;;0.88;;
10056;SDS011;5068;51.286;7.518;2023-02-25T09:57:42;2.25;;;0.80;;
10056;SDS011;5068;51.286;7.518;2023-02-25T09:59:28;3.53;;;0.95;;
10056;SDS011;5068;51.286;7.518;2023-02-25T10:01:14;6.25;;;1.05;;
10056;SDS011;5068;51.286;7.518;2023-02-25T10:03:11;0.88;;;0.30;;
10056;SDS011;5068;51.286;7.518;2023-02-25T10:05:06;0.95;;;0.50;;
10056;SDS011;5068;51.286;7.518;2023-02-25T10:07:04;0.45;;;0.20;;
10056;SDS011;5068;51.286;7.518;2023-02-25T10:08:58;1.88;;;0.17;;
10056;SDS011;5068;51.286;7.518;2023-02-25T10:10:51;0.50;;;0.13;;
10056;SDS011;5068;51.286;7.518;2023-02-25T10:12:38;2.42;;;0.60;;
10056;SDS011;5068;51.286;7.518;2023-02-25T10:14:37;0.82;;;0.30;;
10056;SDS011;5068;51.286;7.518;2023-02-25T10:16:44;0.88;;;0.10;;
10056;SDS011;5068;51.286;7.518;2023-02-25T10:18:45;1.48;;;0.40;;
10056;SDS011;5068;51.286;7.518;2023-02-25T10:20:47;1.60;;;0.20;;
10056;SDS011;5068;51.286;7.518;2023-02-25T10:22:42;0.60;;;0.20;;
10056;SDS011;5068;51.286;7.518;2023-02-25T10:24:38;1.50;;;0.38;;
10056;SDS011;5068;51.286;7.518;2023-02-25T10:26:22;2.15;;;0.43;;
10056;SDS011;5068;51.286;7.518;2023-02-25T10:28:09;1.75;;;0.57;;
10056;SDS011;5068;51.286;7.518;2023-02-25T10:29:53;3.08;;;0.85;;